Time;durP1;ratioP1;P1;durP2;ratioP2;P2;SDS_P1;SDS_P2;PMS_P1;PMS_P2;Temp;Humidity;BMP_temperature;BMP_pressure;BME280_temperature;BME280_humidity;BME280_pressure;Samples;Min_cycle;Max_cycle;Signal;HPM_P1;HPM_P2
2024/01/21 00:00:11;;;;;;;11.13;8.73;;;11.60;62.40;;;;;;348334;28;929;-57
2024/01/21 00:00:22;;;;;;;9.77;8.32;;;11.60;62.30;;;;;;348373;28;976;-57
2024/01/21 00:00:33;;;;;;;8.93;8.02;;;11.60;62.30;;;;;;348407;28;864;-57
2024/01/21 00:00:44;;;;;;;9.82;8.32;;;11.60;62.20;;;;;;348246;28;1075;-57
2024/01/21 00:00:55;;;;;;;10.50;8.40;;;11.60;62.20;;;;;;348358;28;1040;-58
2024/01/21 00:01:05;;;;;;;10.23;8.45;;;11.60;62.20;;;;;;348355;28;1015;-58
2024/01/21 00:01:16;;;;;;;10.65;8.13;;;11.60;62.20;;;;;;348357;28;1040;-58
2024/01/21 00:01:29;;;;;;;10.55;8.10;;;11.60;62.20;;;;;;348399;28;920;-57
2024/01/21 00:01:39;;;;;;;10.55;8.00;;;11.60;62.30;;;;;;348258;28;1117;-58
2024/01/21 00:01:50;;;;;;;8.80;7.65;;;11.60;62.30;;;;;;348412;28;809;-58
2024/01/21 00:02:01;;;;;;;9.57;7.95;;;11.60;62.30;;;;;;348315;28;932;-57
2024/01/21 00:02:14;;;;;;;9.63;8.32;;;11.60;62.30;;;;;;348336;28;1205;-57
2024/01/21 00:02:24;;;;;;;10.55;8.70;;;11.60;62.20;;;;;;348335;28;1000;-58
2024/01/21 00:02:35;;;;;;;10.88;9.00;;;11.60;62.20;;;;;;348363;28;821;-57
2024/01/21 00:02:46;;;;;;;11.32;9.40;;;11.60;62.20;;;;;;348424;28;937;-57
2024/01/21 00:02:57;;;;;;;10.52;9.23;;;11.70;62.30;;;;;;348382;28;903;-57
2024/01/21 00:03:07;;;;;;;9.90;8.80;;;11.60;62.30;;;;;;348369;28;1078;-57
2024/01/21 00:03:18;;;;;;;10.20;8.67;;;11.60;62.30;;;;;;348321;28;926;-57
2024/01/21 00:03:29;;;;;;;10.32;8.60;;;11.70;62.40;;;;;;348417;28;848;-57
2024/01/21 00:03:40;;;;;;;10.57;8.35;;;11.60;62.30;;;;;;348426;28;1022;-57
2024/01/21 00:03:51;;;;;;;10.02;8.27;;;11.60;62.30;;;;;;348341;28;1456;-56
2024/01/21 00:04:01;;;;;;;10.27;8.25;;;11.60;62.30;;;;;;348409;28;825;-57
2024/01/21 00:04:12;;;;;;;10.02;8.45;;;11.60;62.30;;;;;;348154;28;1705;-58
2024/01/21 00:04:23;;;;;;;9.80;8.03;;;11.60;62.30;;;;;;348302;28;960;-57
2024/01/21 00:04:34;;;;;;;9.52;7.95;;;11.60;62.30;;;;;;348265;28;1032;-57
2024/01/21 00:04:45;;;;;;;8.93;7.75;;;11.60;62.20;;;;;;348236;28;1036;-57
2024/01/21 00:04:55;;;;;;;8.82;7.93;;;11.60;62.20;;;;;;348225;28;1484;-57
2024/01/21 00:05:06;;;;;;;8.80;7.90;;;11.60;62.20;;;;;;348126;28;1418;-57
2024/01/21 00:05:17;;;;;;;9.30;8.07;;;11.60;62.10;;;;;;348240;28;1066;-57
2024/01/21 00:05:28;;;;;;;11.32;8.65;;;11.60;62.20;;;;;;348259;28;965;-58
2024/01/21 00:05:39;;;;;;;12.55;9.60;;;11.60;62.20;;;;;;348213;28;1166;-57
2024/01/21 00:05:50;;;;;;;13.33;9.97;;;11.60;62.30;;;;;;348231;28;1027;-57
2024/01/21 00:06:00;;;;;;;12.35;9.68;;;11.60;62.30;;;;;;348166;28;1232;-58
2024/01/21 00:06:11;;;;;;;11.63;9.27;;;11.60;62.40;;;;;;348366;28;921;-58
2024/01/21 00:06:22;;;;;;;10.80;9.20;;;11.60;62.40;;;;;;348356;28;1094;-57
2024/01/21 00:06:33;;;;;;;11.80;9.10;;;11.60;62.40;;;;;;348358;28;1040;-57
2024/01/21 00:06:44;;;;;;;12.13;8.88;;;11.60;62.40;;;;;;348368;28;1086;-57
2024/01/21 00:06:55;;;;;;;11.57;8.63;;;11.50;62.30;;;;;;348330;28;908;-57
2024/01/21 00:07:05;;;;;;;11.07;8.60;;;11.60;62.40;;;;;;348305;28;1504;-56
2024/01/21 00:07:16;;;;;;;9.95;8.30;;;11.60;62.40;;;;;;348407;28;864;-56
2024/01/21 00:07:27;;;;;;;9.25;8.15;;;11.60;62.40;;;;;;348085;28;1622;-56
2024/01/21 00:07:38;;;;;;;10.57;7.88;;;11.60;62.40;;;;;;348078;28;1478;-58
2024/01/21 00:07:49;;;;;;;10.76;7.78;;;11.60;62.40;;;;;;348437;28;937;-57
2024/01/21 00:08:00;;;;;;;10.40;7.63;;;11.60;62.40;;;;;;348298;28;1429;-58
2024/01/21 00:08:11;;;;;;;9.77;7.90;;;11.60;62.40;;;;;;348361;28;872;-58
2024/01/21 00:08:21;;;;;;;10.40;7.80;;;11.60;62.40;;;;;;348362;28;945;-57
2024/01/21 00:08:32;;;;;;;10.07;7.30;;;11.60;62.40;;;;;;348329;28;979;-57
2024/01/21 00:08:43;;;;;;;8.65;6.88;;;11.60;62.40;;;;;;348371;28;809;-56
2024/01/21 00:08:54;;;;;;;8.17;6.90;;;11.60;62.40;;;;;;348391;28;996;-56
2024/01/21 00:09:05;;;;;;;10.63;9.50;;;11.60;62.40;;;;;;348322;28;867;-57
2024/01/21 00:09:16;;;;;;;14.98;13.48;;;11.60;62.40;;;;;;348390;28;845;-57
2024/01/21 00:09:28;;;;;;;16.37;14.67;;;11.60;62.40;;;;;;348400;28;892;-56
2024/01/21 00:09:39;;;;;;;12.07;10.75;;;11.60;62.30;;;;;;348282;28;1117;-56
2024/01/21 00:09:50;;;;;;;9.02;8.07;;;11.60;62.20;;;;;;348318;28;995;-57
2024/01/21 00:10:00;;;;;;;8.23;7.43;;;11.60;62.20;;;;;;348335;28;1094;-57
2024/01/21 00:10:11;;;;;;;9.98;8.43;;;11.60;62.20;;;;;;348267;28;1549;-57
2024/01/21 00:10:22;;;;;;;14.60;12.18;;;11.60;62.10;;;;;;348365;28;1062;-57
2024/01/21 00:10:33;;;;;;;19.85;15.65;;;11.60;62.10;;;;;;348402;28;889;-56
2024/01/21 00:10:44;;;;;;;19.67;15.07;;;11.60;62.10;;;;;;348311;28;931;-57
2024/01/21 00:10:54;;;;;;;16.20;12.47;;;11.60;62.10;;;;;;348393;28;790;-57
2024/01/21 00:11:07;;;;;;;12.20;9.77;;;11.60;62.20;;;;;;348422;28;876;-56
2024/01/21 00:11:18;;;;;;;9.88;8.30;;;11.60;62.20;;;;;;348250;28;1019;-57
2024/01/21 00:11:29;;;;;;;8.60;7.70;;;11.60;62.20;;;;;;348337;28;1118;-57
2024/01/21 00:11:40;;;;;;;8.60;7.70;;;11.60;62.20;;;;;;348275;28;933;-57
2024/01/21 00:11:50;;;;;;;8.25;7.38;;;11.60;62.20;;;;;;348385;28;806;-57
2024/01/21 00:12:01;;;;;;;8.95;7.18;;;11.60;62.20;;;;;;348285;28;1019;-57
2024/01/21 00:12:12;;;;;;;8.17;6.80;;;11.60;62.20;;;;;;348436;28;805;-57
2024/01/21 00:12:23;;;;;;;8.75;6.65;;;11.60;62.10;;;;;;348273;28;1888;-57
2024/01/21 00:12:34;;;;;;;8.35;6.70;;;11.60;62.10;;;;;;348401;28;1012;-56
2024/01/21 00:12:44;;;;;;;8.35;6.80;;;11.60;62.10;;;;;;348262;28;1035;-58
2024/01/21 00:12:55;;;;;;;7.47;6.55;;;11.60;62.20;;;;;;348338;28;1090;-57
2024/01/21 00:13:06;;;;;;;7.03;6.32;;;11.60;62.20;;;;;;348343;28;986;-57
2024/01/21 00:13:17;;;;;;;6.90;6.20;;;11.60;62.30;;;;;;348428;28;833;-56
2024/01/21 00:13:28;;;;;;;7.05;6.35;;;11.60;62.30;;;;;;348317;28;885;-57
2024/01/21 00:13:39;;;;;;;7.35;6.20;;;11.60;62.30;;;;;;348362;28;1052;-57
2024/01/21 00:13:49;;;;;;;7.60;6.60;;;11.60;62.20;;;;;;348313;28;904;-58
2024/01/21 00:14:00;;;;;;;7.90;6.82;;;11.60;62.20;;;;;;348403;28;885;-57
2024/01/21 00:14:11;;;;;;;7.70;6.93;;;11.60;62.10;;;;;;348341;28;997;-58
2024/01/21 00:14:22;;;;;;;7.40;6.68;;;11.60;62.00;;;;;;348394;28;1074;-58
2024/01/21 00:14:35;;;;;;;7.32;6.53;;;11.60;62.00;;;;;;348317;28;978;-57
2024/01/21 00:14:46;;;;;;;7.57;6.75;;;11.50;62.00;;;;;;348331;28;1681;-57
2024/01/21 00:14:57;;;;;;;7.72;6.95;;;11.60;62.00;;;;;;348347;28;912;-58
2024/01/21 00:15:08;;;;;;;7.70;6.95;;;11.60;62.00;;;;;;348438;28;919;-57
2024/01/21 00:15:19;;;;;;;7.80;6.63;;;11.60;62.10;;;;;;348278;28;908;-57
2024/01/21 00:15:29;;;;;;;7.93;6.50;;;11.60;62.10;;;;;;348362;28;940;-57
2024/01/21 00:15:40;;;;;;;8.03;6.40;;;11.60;62.00;;;;;;348278;28;1901;-57
2024/01/21 00:15:51;;;;;;;7.67;6.70;;;11.60;62.10;;;;;;348385;28;1011;-57
2024/01/21 00:16:02;;;;;;;8.15;6.80;;;11.60;62.00;;;;;;348322;28;923;-58
2024/01/21 00:16:13;;;;;;;8.05;6.78;;;11.60;61.90;;;;;;348384;28;829;-57
2024/01/21 00:16:23;;;;;;;7.22;6.22;;;11.60;61.90;;;;;;348358;28;1031;-58
2024/01/21 00:16:34;;;;;;;6.80;6.10;;;11.60;61.80;;;;;;348309;28;913;-57
2024/01/21 00:16:45;;;;;;;7.03;6.33;;;11.60;61.80;;;;;;348396;28;863;-57
2024/01/21 00:16:56;;;;;;;7.50;6.70;;;11.60;61.70;;;;;;348298;28;1126;-57
2024/01/21 00:17:07;;;;;;;7.63;6.70;;;11.60;61.80;;;;;;348297;28;1015;-57
2024/01/21 00:17:18;;;;;;;7.55;6.45;;;11.60;61.80;;;;;;348393;28;916;-57
2024/01/21 00:17:29;;;;;;;7.53;6.30;;;11.60;61.80;;;;;;348405;28;884;-57
2024/01/21 00:17:40;;;;;;;7.23;6.17;;;11.60;61.90;;;;;;348248;28;2485;-57
2024/01/21 00:17:50;;;;;;;7.93;6.30;;;11.60;61.90;;;;;;348371;28;1227;-57
2024/01/21 00:18:02;;;;;;;8.25;6.38;;;11.60;61.90;;;;;;348392;28;805;-57
2024/01/21 00:18:13;;;;;;;8.00;6.43;;;11.60;61.90;;;;;;348319;28;897;-57
2024/01/21 00:18:24;;;;;;;7.55;6.57;;;11.50;61.90;;;;;;348254;28;1953;-57
2024/01/21 00:18:34;;;;;;;8.53;6.60;;;11.60;61.90;;;;;;348366;28;856;-58
2024/01/21 00:18:45;;;;;;;8.30;6.60;;;11.60;61.80;;;;;;348281;28;872;-56
2024/01/21 00:18:56;;;;;;;9.07;6.38;;;11.60;61.70;;;;;;348362;28;1628;-57
2024/01/21 00:19:07;;;;;;;8.23;6.38;;;11.60;61.70;;;;;;348393;28;861;-57
2024/01/21 00:19:17;;;;;;;8.50;6.43;;;11.60;61.70;;;;;;348249;28;1091;-57
2024/01/21 00:19:28;;;;;;;7.70;6.63;;;11.60;61.70;;;;;;348331;28;1168;-57
2024/01/21 00:19:40;;;;;;;8.38;6.70;;;11.50;61.70;;;;;;348420;28;805;-58
2024/01/21 00:19:51;;;;;;;8.35;6.78;;;11.50;61.70;;;;;;348327;28;908;-57
2024/01/21 00:20:02;;;;;;;8.05;6.70;;;11.50;61.80;;;;;;348412;28;884;-56
2024/01/21 00:20:13;;;;;;;7.50;6.68;;;11.50;61.70;;;;;;348299;28;1438;-57
2024/01/21 00:20:24;;;;;;;7.57;6.63;;;11.50;61.70;;;;;;348311;28;974;-57
2024/01/21 00:20:35;;;;;;;8.15;6.80;;;11.60;61.80;;;;;;348403;28;888;-57
2024/01/21 00:20:45;;;;;;;8.18;6.43;;;11.60;61.80;;;;;;348415;28;777;-57
2024/01/21 00:20:56;;;;;;;8.70;6.47;;;11.60;61.80;;;;;;348222;28;923;-57
2024/01/21 00:21:07;;;;;;;8.27;6.43;;;11.60;61.80;;;;;;348378;28;852;-57
2024/01/21 00:21:18;;;;;;;8.23;6.80;;;11.50;61.80;;;;;;348305;28;1603;-57
2024/01/21 00:21:28;;;;;;;7.93;6.78;;;11.50;61.80;;;;;;348322;28;1083;-57
2024/01/21 00:21:39;;;;;;;8.65;6.88;;;11.60;61.80;;;;;;348305;28;857;-60
2024/01/21 00:21:50;;;;;;;8.75;6.70;;;11.50;61.70;;;;;;348301;28;1813;-57
2024/01/21 00:22:02;;;;;;;8.63;6.70;;;11.60;61.70;;;;;;348347;28;1838;-56
2024/01/21 00:22:12;;;;;;;8.50;7.03;;;11.50;61.70;;;;;;348224;28;1224;-57
2024/01/21 00:22:23;;;;;;;8.15;7.18;;;11.60;61.70;;;;;;348355;28;925;-56
2024/01/21 00:22:34;;;;;;;7.97;6.93;;;11.50;61.70;;;;;;348305;28;1762;-57
2024/01/21 00:22:45;;;;;;;7.85;6.68;;;11.60;61.60;;;;;;348283;28;1137;-58
2024/01/21 00:22:57;;;;;;;7.78;6.65;;;11.60;61.60;;;;;;348289;28;938;-57
2024/01/21 00:23:08;;;;;;;7.97;6.75;;;11.60;61.60;;;;;;348370;28;1058;-57
2024/01/21 00:23:19;;;;;;;9.02;6.82;;;11.60;61.60;;;;;;348259;28;1094;-57
2024/01/21 00:23:30;;;;;;;9.07;6.80;;;11.60;61.60;;;;;;348389;28;803;-57
2024/01/21 00:23:41;;;;;;;8.85;7.07;;;11.60;61.60;;;;;;348240;28;1047;-59
2024/01/21 00:23:52;;;;;;;8.27;7.00;;;11.60;61.60;;;;;;348292;28;1606;-58
2024/01/21 00:24:03;;;;;;;8.13;7.13;;;11.50;61.60;;;;;;348243;28;1074;-58
2024/01/21 00:24:14;;;;;;;8.25;7.00;;;11.60;61.60;;;;;;348382;28;872;-57
2024/01/21 00:24:25;;;;;;;7.93;7.13;;;11.60;61.70;;;;;;348310;28;1000;-57
2024/01/21 00:24:35;;;;;;;7.80;6.90;;;11.60;61.80;;;;;;348369;28;875;-57
2024/01/21 00:24:46;;;;;;;7.95;7.15;;;11.50;61.80;;;;;;348305;28;856;-57
2024/01/21 00:24:57;;;;;;;7.68;6.85;;;11.60;61.90;;;;;;348310;28;1015;-56
2024/01/21 00:25:10;;;;;;;7.80;6.80;;;11.50;61.80;;;;;;348276;28;1002;-56
2024/01/21 00:25:21;;;;;;;7.75;6.53;;;11.60;61.80;;;;;;348404;28;872;-55
2024/01/21 00:25:32;;;;;;;8.13;6.60;;;11.50;61.80;;;;;;348232;28;1415;-56
2024/01/21 00:25:43;;;;;;;8.38;6.75;;;11.60;61.90;;;;;;348336;28;907;-56
2024/01/21 00:25:53;;;;;;;8.80;7.00;;;11.60;61.80;;;;;;348221;28;1446;-57
2024/01/21 00:26:04;;;;;;;9.10;7.15;;;11.50;61.80;;;;;;348364;28;1043;-57
2024/01/21 00:26:15;;;;;;;9.50;7.38;;;11.60;61.90;;;;;;348165;28;1416;-56
2024/01/21 00:26:26;;;;;;;10.20;7.47;;;11.60;61.90;;;;;;348269;28;852;-58
2024/01/21 00:26:37;;;;;;;9.13;6.97;;;11.60;61.90;;;;;;348216;28;1035;-56
2024/01/21 00:26:47;;;;;;;9.50;6.78;;;11.60;62.00;;;;;;348123;28;1069;-56
2024/01/21 00:26:58;;;;;;;9.37;6.80;;;11.50;61.90;;;;;;348231;28;920;-56
2024/01/21 00:27:09;;;;;;;9.77;7.13;;;11.60;61.90;;;;;;348215;28;1059;-57
2024/01/21 00:27:20;;;;;;;9.30;7.25;;;11.50;61.90;;;;;;348310;28;829;-58
2024/01/21 00:27:31;;;;;;;9.10;7.30;;;11.50;61.90;;;;;;348206;28;1621;-58
2024/01/21 00:27:41;;;;;;;8.85;6.90;;;11.50;61.90;;;;;;348146;28;863;-57
2024/01/21 00:27:52;;;;;;;8.90;6.88;;;11.50;61.90;;;;;;348274;28;836;-57
2024/01/21 00:28:03;;;;;;;8.90;7.10;;;11.60;61.90;;;;;;348264;28;1707;-57
2024/01/21 00:28:15;;;;;;;8.32;7.00;;;11.60;61.90;;;;;;348304;28;825;-58
2024/01/21 00:28:26;;;;;;;9.55;6.78;;;11.60;61.90;;;;;;348244;28;1696;-57
2024/01/21 00:28:37;;;;;;;9.83;6.60;;;11.50;61.90;;;;;;348381;28;836;-58
2024/01/21 00:28:48;;;;;;;10.80;6.80;;;11.50;61.90;;;;;;348352;28;899;-57
2024/01/21 00:29:00;;;;;;;10.07;6.90;;;11.60;61.90;;;;;;348387;28;907;-57
2024/01/21 00:29:11;;;;;;;9.57;6.93;;;11.60;61.90;;;;;;348272;28;1142;-57
2024/01/21 00:29:22;;;;;;;8.63;6.93;;;11.60;62.00;;;;;;348381;28;920;-57
2024/01/21 00:29:33;;;;;;;8.37;7.20;;;11.50;62.00;;;;;;348468;28;821;-57
2024/01/21 00:29:43;;;;;;;8.18;7.22;;;11.60;62.10;;;;;;348348;28;911;-57
2024/01/21 00:29:54;;;;;;;9.25;7.38;;;11.60;62.10;;;;;;348379;28;873;-57
2024/01/21 00:30:06;;;;;;;9.40;7.55;;;11.50;62.00;;;;;;348313;28;891;-57
2024/01/21 00:30:17;;;;;;;9.18;7.30;;;11.50;62.00;;;;;;348391;28;923;-57
2024/01/21 00:30:27;;;;;;;9.30;7.23;;;11.50;62.00;;;;;;348388;28;1767;-56
2024/01/21 00:30:38;;;;;;;9.50;7.15;;;11.60;61.90;;;;;;348353;28;908;-58
2024/01/21 00:30:49;;;;;;;8.98;7.05;;;11.60;61.90;;;;;;348250;28;996;-57
2024/01/21 00:31:03;;;;;;;9.00;6.90;;;11.60;61.90;;;;;;348359;28;915;-57
2024/01/21 00:31:14;;;;;;;9.57;7.05;;;11.60;61.90;;;;;;348412;28;971;-57
2024/01/21 00:31:24;;;;;;;9.23;7.38;;;11.60;61.90;;;;;;348431;28;884;-57
2024/01/21 00:31:36;;;;;;;8.50;7.60;;;11.50;61.90;;;;;;348285;28;887;-57
2024/01/21 00:31:46;;;;;;;8.82;7.70;;;11.50;61.90;;;;;;348389;28;857;-57
2024/01/21 00:31:57;;;;;;;10.05;7.95;;;11.60;61.90;;;;;;348393;28;797;-57
2024/01/21 00:32:08;;;;;;;9.63;8.00;;;11.60;61.90;;;;;;348407;28;880;-56
2024/01/21 00:32:19;;;;;;;9.68;7.75;;;11.50;62.00;;;;;;348389;28;971;-57
2024/01/21 00:32:29;;;;;;;8.35;7.22;;;11.50;62.00;;;;;;348305;28;911;-59
2024/01/21 00:32:40;;;;;;;8.30;6.90;;;11.50;62.10;;;;;;348364;28;874;-56
2024/01/21 00:32:51;;;;;;;7.75;6.88;;;11.50;62.10;;;;;;348394;28;896;-58
2024/01/21 00:33:02;;;;;;;8.95;7.07;;;11.50;62.10;;;;;;348337;28;856;-57
2024/01/21 00:33:13;;;;;;;9.60;7.43;;;11.50;62.10;;;;;;348361;28;1695;-57
2024/01/21 00:33:23;;;;;;;10.30;7.57;;;11.60;62.10;;;;;;348338;28;962;-57
2024/01/21 00:33:34;;;;;;;9.73;7.85;;;11.50;62.10;;;;;;348349;28;797;-56
2024/01/21 00:33:45;;;;;;;9.80;7.70;;;11.50;62.10;;;;;;348272;28;1114;-56
2024/01/21 00:33:56;;;;;;;9.25;7.40;;;11.50;62.20;;;;;;348339;28;1059;-57
2024/01/21 00:34:07;;;;;;;9.23;7.32;;;11.50;62.30;;;;;;348296;28;1018;-57
2024/01/21 00:34:17;;;;;;;10.97;7.53;;;11.50;62.30;;;;;;348272;28;1218;-57
2024/01/21 00:34:28;;;;;;;10.68;7.25;;;11.50;62.30;;;;;;348369;28;983;-57
2024/01/21 00:34:39;;;;;;;10.02;7.30;;;11.50;62.30;;;;;;348321;28;1712;-58
2024/01/21 00:34:50;;;;;;;8.10;7.20;;;11.50;62.20;;;;;;348317;28;1216;-57
2024/01/21 00:35:01;;;;;;;7.95;7.15;;;11.50;62.30;;;;;;348352;28;1102;-57
2024/01/21 00:35:12;;;;;;;7.53;6.72;;;11.50;62.30;;;;;;348322;28;1052;-56
2024/01/21 00:35:23;;;;;;;7.40;6.43;;;11.50;62.30;;;;;;348393;28;829;-56
2024/01/21 00:35:33;;;;;;;8.30;6.82;;;11.50;62.30;;;;;;348285;28;1401;-57
2024/01/21 00:35:44;;;;;;;8.93;6.72;;;11.50;62.30;;;;;;348333;28;820;-57
2024/01/21 00:35:55;;;;;;;9.07;6.80;;;11.50;62.30;;;;;;348374;28;868;-57
2024/01/21 00:36:08;;;;;;;10.00;6.93;;;11.50;62.30;;;;;;348257;28;1024;-56
2024/01/21 00:36:18;;;;;;;9.40;7.15;;;11.50;62.30;;;;;;348310;28;1071;-58
2024/01/21 00:36:29;;;;;;;8.13;7.00;;;11.50;62.30;;;;;;348393;28;857;-58
2024/01/21 00:36:40;;;;;;;8.65;6.82;;;11.50;62.30;;;;;;348245;28;1654;-56
2024/01/21 00:36:51;;;;;;;8.50;6.65;;;11.50;62.20;;;;;;348414;28;817;-58
2024/01/21 00:37:02;;;;;;;8.40;6.72;;;11.50;62.10;;;;;;348209;28;1246;-57
2024/01/21 00:37:13;;;;;;;8.00;6.73;;;11.50;62.10;;;;;;348388;28;793;-57
2024/01/21 00:37:23;;;;;;;9.00;6.75;;;11.50;62.10;;;;;;348344;28;1038;-57
2024/01/21 00:37:34;;;;;;;8.95;6.68;;;11.50;62.10;;;;;;348298;28;1035;-58
2024/01/21 00:37:45;;;;;;;8.60;6.70;;;11.50;62.10;;;;;;348394;28;883;-57
2024/01/21 00:37:56;;;;;;;7.25;6.53;;;11.50;62.10;;;;;;348314;28;1004;-57
2024/01/21 00:38:07;;;;;;;7.10;6.40;;;11.50;62.10;;;;;;348359;28;955;-57
2024/01/21 00:38:17;;;;;;;8.07;6.50;;;11.60;62.20;;;;;;348337;28;1631;-57
2024/01/21 00:38:28;;;;;;;8.87;6.33;;;11.50;62.20;;;;;;348271;28;1906;-57
2024/01/21 00:38:41;;;;;;;9.02;6.60;;;11.50;62.10;;;;;;348326;28;900;-57
2024/01/21 00:38:52;;;;;;;8.52;7.00;;;11.50;62.10;;;;;;348185;28;1589;-57
2024/01/21 00:39:03;;;;;;;7.75;6.70;;;11.50;62.00;;;;;;348414;28;901;-58
2024/01/21 00:39:13;;;;;;;7.68;6.85;;;11.60;62.10;;;;;;348338;28;1551;-57
2024/01/21 00:39:24;;;;;;;7.43;6.63;;;11.50;62.00;;;;;;348306;28;1322;-58
2024/01/21 00:39:36;;;;;;;8.17;7.03;;;11.60;62.00;;;;;;348399;28;897;-56
2024/01/21 00:39:46;;;;;;;8.35;7.05;;;11.50;62.00;;;;;;348213;28;1256;-56
2024/01/21 00:39:57;;;;;;;7.80;6.93;;;11.50;62.00;;;;;;348361;28;861;-56
2024/01/21 00:40:08;;;;;;;7.20;6.47;;;11.50;62.00;;;;;;348319;28;1039;-56
2024/01/21 00:40:19;;;;;;;7.78;6.70;;;11.60;62.00;;;;;;348356;28;896;-58
2024/01/21 00:40:30;;;;;;;9.00;6.90;;;11.50;62.00;;;;;;348283;28;1709;-57
2024/01/21 00:40:41;;;;;;;9.53;7.10;;;11.50;62.00;;;;;;348278;28;1038;-59
2024/01/21 00:40:52;;;;;;;8.43;6.95;;;11.50;62.00;;;;;;348313;28;1117;-57
2024/01/21 00:41:02;;;;;;;7.95;7.03;;;11.50;62.10;;;;;;348403;28;833;-57
2024/01/21 00:41:14;;;;;;;8.25;7.30;;;11.50;62.10;;;;;;348343;28;887;-57
2024/01/21 00:41:25;;;;;;;9.20;7.63;;;11.50;62.00;;;;;;348353;28;909;-57
2024/01/21 00:41:36;;;;;;;8.52;7.50;;;11.50;62.00;;;;;;348252;28;1030;-59
2024/01/21 00:41:47;;;;;;;9.25;7.60;;;11.50;62.00;;;;;;348277;28;1043;-57
2024/01/21 00:41:57;;;;;;;8.90;7.47;;;11.50;62.00;;;;;;348315;28;1007;-58
2024/01/21 00:42:08;;;;;;;10.55;7.93;;;11.50;62.00;;;;;;348239;28;1086;-58
2024/01/21 00:42:19;;;;;;;10.40;8.15;;;11.50;62.00;;;;;;348311;28;964;-57
2024/01/21 00:42:30;;;;;;;10.48;8.38;;;11.50;62.00;;;;;;348376;28;1019;-58
2024/01/21 00:42:40;;;;;;;9.38;8.20;;;11.50;62.10;;;;;;348198;28;1031;-57
2024/01/21 00:42:51;;;;;;;9.37;7.97;;;11.50;62.10;;;;;;348262;28;1699;-57
2024/01/21 00:43:02;;;;;;;8.60;7.32;;;11.50;62.10;;;;;;348028;28;1503;-56
2024/01/21 00:43:13;;;;;;;8.13;7.07;;;11.50;62.00;;;;;;348329;28;1078;-57
2024/01/21 00:43:23;;;;;;;8.00;7.20;;;11.50;62.10;;;;;;348375;28;1019;-57
2024/01/21 00:43:34;;;;;;;8.10;7.30;;;11.50;62.10;;;;;;348277;28;1091;-58
2024/01/21 00:43:45;;;;;;;8.10;7.30;;;11.50;62.10;;;;;;348331;28;841;-58
2024/01/21 00:43:56;;;;;;;8.35;7.55;;;11.50;62.10;;;;;;348354;28;1010;-58
2024/01/21 00:44:08;;;;;;;8.67;7.77;;;11.50;62.10;;;;;;348240;28;1021;-57
2024/01/21 00:44:19;;;;;;;8.70;7.80;;;11.50;62.20;;;;;;348287;28;1110;-58
2024/01/21 00:44:29;;;;;;;9.05;8.10;;;11.50;62.20;;;;;;348331;28;993;-56
2024/01/21 00:44:43;;;;;;;10.40;8.77;;;11.50;62.20;;;;;;348300;28;833;-56
2024/01/21 00:44:54;;;;;;;10.23;8.68;;;11.50;62.10;;;;;;348214;28;1062;-57
2024/01/21 00:45:05;;;;;;;10.43;8.80;;;11.50;62.10;;;;;;348370;28;832;-57
2024/01/21 00:45:16;;;;;;;10.77;9.20;;;11.50;62.10;;;;;;348228;28;968;-58
2024/01/21 00:45:27;;;;;;;10.65;9.20;;;11.50;62.00;;;;;;348353;28;810;-56
2024/01/21 00:45:37;;;;;;;10.80;9.30;;;11.50;62.00;;;;;;348329;28;1093;-56
2024/01/21 00:45:48;;;;;;;10.48;9.13;;;11.50;62.00;;;;;;348278;28;1089;-56
2024/01/21 00:45:59;;;;;;;10.23;8.55;;;11.50;62.00;;;;;;348320;28;1640;-57
2024/01/21 00:46:10;;;;;;;9.05;7.88;;;11.50;62.10;;;;;;348376;28;833;-57
2024/01/21 00:46:20;;;;;;;8.23;7.30;;;11.60;62.10;;;;;;348297;28;880;-56
2024/01/21 00:46:31;;;;;;;8.67;7.60;;;11.50;62.10;;;;;;348333;28;880;-56
2024/01/21 00:46:42;;;;;;;9.13;7.90;;;11.50;62.10;;;;;;348333;28;820;-56
2024/01/21 00:46:53;;;;;;;9.57;8.00;;;11.60;62.10;;;;;;348340;28;848;-57
2024/01/21 00:47:04;;;;;;;9.52;7.88;;;11.50;62.00;;;;;;348222;28;1003;-57
2024/01/21 00:47:15;;;;;;;9.30;8.00;;;11.60;62.00;;;;;;348327;28;1064;-56
2024/01/21 00:47:26;;;;;;;8.97;7.80;;;11.50;62.00;;;;;;348268;28;1086;-55
2024/01/21 00:47:37;;;;;;;8.85;7.70;;;11.50;62.00;;;;;;348298;28;1445;-57
2024/01/21 00:47:47;;;;;;;9.60;7.78;;;11.60;62.00;;;;;;348221;28;1246;-57
2024/01/21 00:47:58;;;;;;;10.20;8.40;;;11.60;61.90;;;;;;348397;28;828;-57
2024/01/21 00:48:09;;;;;;;9.88;8.32;;;11.60;61.90;;;;;;348235;28;1814;-56
2024/01/21 00:48:20;;;;;;;10.20;8.50;;;11.60;61.90;;;;;;348325;28;1568;-58
2024/01/21 00:48:31;;;;;;;10.60;8.93;;;11.50;61.90;;;;;;348195;28;1603;-56
2024/01/21 00:48:41;;;;;;;10.32;9.20;;;11.60;61.90;;;;;;348279;28;868;-56
2024/01/21 00:48:52;;;;;;;10.35;9.18;;;11.50;61.90;;;;;;348328;28;1313;-56
2024/01/21 00:49:03;;;;;;;9.65;8.65;;;11.50;61.90;;;;;;348356;28;1034;-57
2024/01/21 00:49:14;;;;;;;9.48;8.48;;;11.60;61.90;;;;;;348283;28;1010;-56
2024/01/21 00:49:25;;;;;;;9.63;8.63;;;11.60;61.90;;;;;;348382;28;899;-56
2024/01/21 00:49:39;;;;;;;9.70;8.70;;;11.60;61.90;;;;;;348312;28;1046;-57
2024/01/21 00:49:50;;;;;;;9.45;8.45;;;11.60;61.90;;;;;;348317;28;943;-57
2024/01/21 00:50:03;;;;;;;9.73;8.05;;;11.60;61.90;;;;;;348241;28;919;-56
2024/01/21 00:50:13;;;;;;;9.95;8.02;;;11.60;61.90;;;;;;348273;28;1071;-57
2024/01/21 00:50:26;;;;;;;10.02;8.07;;;11.60;61.90;;;;;;348331;28;968;-56
2024/01/21 00:50:37;;;;;;;9.32;7.72;;;11.60;61.90;;;;;;348254;28;1063;-56
2024/01/21 00:50:48;;;;;;;9.63;7.63;;;11.60;61.80;;;;;;348270;28;870;-57
2024/01/21 00:50:58;;;;;;;9.05;7.90;;;11.60;61.80;;;;;;348427;28;866;-56
2024/01/21 00:51:09;;;;;;;9.90;8.43;;;11.60;61.70;;;;;;348391;28;865;-56
2024/01/21 00:51:20;;;;;;;9.95;8.82;;;11.60;61.70;;;;;;348336;28;914;-56
2024/01/21 00:51:31;;;;;;;10.47;9.23;;;11.60;61.80;;;;;;348288;28;979;-56
2024/01/21 00:51:42;;;;;;;10.30;9.26;;;11.50;61.80;;;;;;348309;28;1061;-57
2024/01/21 00:51:53;;;;;;;9.80;8.80;;;11.50;61.90;;;;;;348322;28;777;-57
2024/01/21 00:52:04;;;;;;;9.40;8.50;;;11.60;61.90;;;;;;348287;28;1142;-56
2024/01/21 00:52:15;;;;;;;9.15;8.25;;;11.50;61.90;;;;;;348255;28;969;-57
2024/01/21 00:52:26;;;;;;;9.00;8.10;;;11.50;62.00;;;;;;348235;28;1548;-56
2024/01/21 00:52:37;;;;;;;9.23;8.23;;;11.50;61.90;;;;;;348343;28;1020;-57
2024/01/21 00:52:47;;;;;;;9.85;8.18;;;11.50;61.90;;;;;;348325;28;840;-57
2024/01/21 00:52:58;;;;;;;9.77;8.10;;;11.50;61.90;;;;;;348287;28;883;-57
2024/01/21 00:53:09;;;;;;;9.43;7.85;;;11.60;62.00;;;;;;348325;28;1006;-56
2024/01/21 00:53:20;;;;;;;10.40;8.25;;;11.50;62.00;;;;;;348270;28;1290;-56
2024/01/21 00:53:31;;;;;;;10.25;8.40;;;11.50;62.00;;;;;;348372;28;872;-56
2024/01/21 00:53:41;;;;;;;9.90;8.43;;;11.50;62.00;;;;;;348197;28;1082;-56
2024/01/21 00:53:52;;;;;;;9.43;8.50;;;11.50;62.00;;;;;;348327;28;1425;-56
2024/01/21 00:54:03;;;;;;;9.82;8.82;;;11.50;62.00;;;;;;348275;28;1580;-57
2024/01/21 00:54:14;;;;;;;10.13;9.02;;;11.50;62.00;;;;;;348317;28;1059;-57
2024/01/21 00:54:25;;;;;;;9.98;8.88;;;11.50;62.00;;;;;;348231;28;1056;-57
2024/01/21 00:54:36;;;;;;;10.23;8.55;;;11.50;61.90;;;;;;348396;28;928;-57
2024/01/21 00:54:46;;;;;;;9.88;8.63;;;11.50;62.00;;;;;;348279;28;1047;-56
2024/01/21 00:54:57;;;;;;;10.38;8.75;;;11.50;62.00;;;;;;348397;28;852;-56
2024/01/21 00:55:08;;;;;;;10.33;8.87;;;11.50;62.00;;;;;;348207;28;1502;-56
2024/01/21 00:55:19;;;;;;;10.75;8.85;;;11.60;62.00;;;;;;348283;28;1019;-56
2024/01/21 00:55:30;;;;;;;10.02;8.45;;;11.50;62.00;;;;;;348315;28;1019;-56
2024/01/21 00:55:41;;;;;;;9.75;8.27;;;11.50;62.10;;;;;;348300;28;1189;-56
2024/01/21 00:55:51;;;;;;;10.25;8.30;;;11.50;62.10;;;;;;348229;28;1004;-57
2024/01/21 00:56:02;;;;;;;10.90;8.43;;;11.60;62.10;;;;;;348399;28;1007;-56
2024/01/21 00:56:13;;;;;;;11.02;8.85;;;11.50;62.10;;;;;;348297;28;880;-56
2024/01/21 00:56:24;;;;;;;10.98;9.32;;;11.50;62.10;;;;;;348385;28;968;-57
2024/01/21 00:56:35;;;;;;;11.18;9.88;;;11.50;62.20;;;;;;348247;28;1011;-57
2024/01/21 00:56:46;;;;;;;11.20;9.67;;;11.50;62.20;;;;;;348274;28;1720;-56
2024/01/21 00:56:56;;;;;;;11.38;9.55;;;11.50;62.20;;;;;;348333;28;873;-58
2024/01/21 00:57:07;;;;;;;10.90;9.15;;;11.50;62.10;;;;;;348333;28;849;-56
2024/01/21 00:57:18;;;;;;;10.80;9.20;;;11.50;62.10;;;;;;348118;28;1107;-57
2024/01/21 00:57:29;;;;;;;10.00;8.95;;;11.50;62.20;;;;;;348384;28;833;-57
2024/01/21 00:57:40;;;;;;;10.15;9.05;;;11.50;62.10;;;;;;348310;28;891;-58
2024/01/21 00:57:51;;;;;;;10.27;9.13;;;11.50;62.20;;;;;;348335;28;817;-58
2024/01/21 00:58:02;;;;;;;10.63;9.52;;;11.50;62.30;;;;;;348212;28;1066;-57
2024/01/21 00:58:13;;;;;;;10.88;9.65;;;11.50;62.20;;;;;;348323;28;892;-57
2024/01/21 00:58:24;;;;;;;11.02;9.50;;;11.50;62.20;;;;;;348199;28;1977;-57
2024/01/21 00:58:35;;;;;;;10.50;8.98;;;11.50;62.20;;;;;;348307;28;1039;-57
2024/01/21 00:58:45;;;;;;;9.95;8.80;;;11.50;62.30;;;;;;348268;28;895;-57